sensor_id;sensor_type;location;lat;lon;timestamp;temperature;humidity
1778;DHT22;71547;50.146;8.174;2024-03-22T00:02:05;7.50;99.90
1778;DHT22;71547;50.146;8.174;2024-03-22T00:04:31;7.40;99.90
1778;DHT22;71547;50.146;8.174;2024-03-22T00:06:58;7.40;99.90
1778;DHT22;71547;50.146;8.174;2024-03-22T00:09:24;7.40;99.90
1778;DHT22;71547;50.146;8.174;2024-03-22T00:11:50;7.40;99.90
1778;DHT22;71547;50.146;8.174;2024-03-22T00:14:16;7.40;99.90
1778;DHT22;71547;50.146;8.174;2024-03-22T00:16:44;7.40;99.90
1778;DHT22;71547;50.146;8.174;2024-03-22T00:19:10;7.40;99.90
1778;DHT22;71547;50.146;8.174;2024-03-22T00:21:36;7.40;99.90
1778;DHT22;71547;50.146;8.174;2024-03-22T00:24:02;7.40;99.90
1778;DHT22;71547;50.146;8.174;2024-03-22T00:26:29;7.30;99.90
1778;DHT22;71547;50.146;8.174;2024-03-22T00:28:55;7.30;99.90
1778;DHT22;71547;50.146;8.174;2024-03-22T00:31:24;7.30;99.90
1778;DHT22;71547;50.146;8.174;2024-03-22T00:33:51;7.20;99.90
1778;DHT22;71547;50.146;8.174;2024-03-22T00:36:17;7.20;99.90
1778;DHT22;71547;50.146;8.174;2024-03-22T00:38:43;7.10;99.90
1778;DHT22;71547;50.146;8.174;2024-03-22T00:41:09;7.10;99.90
1778;DHT22;71547;50.146;8.174;2024-03-22T00:43:35;7.00;99.90
1778;DHT22;71547;50.146;8.174;2024-03-22T00:46:02;7.00;99.90
1778;DHT22;71547;50.146;8.174;2024-03-22T00:48:28;6.90;99.90
1778;DHT22;71547;50.146;8.174;2024-03-22T00:50:56;6.90;99.90
1778;DHT22;71547;50.146;8.174;2024-03-22T00:53:22;6.80;99.90
1778;DHT22;71547;50.146;8.174;2024-03-22T00:55:48;6.70;99.90
1778;DHT22;71547;50.146;8.174;2024-03-22T00:58:18;6.70;99.90
1778;DHT22;71547;50.146;8.174;2024-03-22T01:00:44;6.70;99.90
1778;DHT22;71547;50.146;8.174;2024-03-22T01:03:10;6.70;99.90
1778;DHT22;71547;50.146;8.174;2024-03-22T01:05:36;6.60;99.90
1778;DHT22;71547;50.146;8.174;2024-03-22T01:08:05;6.60;99.90
1778;DHT22;71547;50.146;8.174;2024-03-22T01:10:33;6.60;99.90
1778;DHT22;71547;50.146;8.174;2024-03-22T01:12:59;6.50;99.90
1778;DHT22;71547;50.146;8.174;2024-03-22T01:15:26;6.50;99.90
1778;DHT22;71547;50.146;8.174;2024-03-22T01:17:52;6.50;99.90
1778;DHT22;71547;50.146;8.174;2024-03-22T01:20:19;6.40;99.90
1778;DHT22;71547;50.146;8.174;2024-03-22T01:22:46;6.40;99.90
1778;DHT22;71547;50.146;8.174;2024-03-22T01:25:13;6.30;99.90
1778;DHT22;71547;50.146;8.174;2024-03-22T01:27:40;6.30;99.90
1778;DHT22;71547;50.146;8.174;2024-03-22T01:30:07;6.30;99.90
1778;DHT22;71547;50.146;8.174;2024-03-22T01:32:34;6.20;99.90
1778;DHT22;71547;50.146;8.174;2024-03-22T01:35:01;6.20;99.90
1778;DHT22;71547;50.146;8.174;2024-03-22T01:37:27;6.20;99.90
1778;DHT22;71547;50.146;8.174;2024-03-22T01:39:53;6.30;99.90
1778;DHT22;71547;50.146;8.174;2024-03-22T01:42:20;6.20;99.90
1778;DHT22;71547;50.146;8.174;2024-03-22T01:44:46;6.20;99.90
1778;DHT22;71547;50.146;8.174;2024-03-22T01:47:14;6.20;99.90
1778;DHT22;71547;50.146;8.174;2024-03-22T01:49:42;6.10;99.90
1778;DHT22;71547;50.146;8.174;2024-03-22T01:52:08;6.10;99.90
1778;DHT22;71547;50.146;8.174;2024-03-22T01:54:34;6.10;99.90
1778;DHT22;71547;50.146;8.174;2024-03-22T01:57:01;6.10;99.90
1778;DHT22;71547;50.146;8.174;2024-03-22T01:59:30;6.10;99.90
1778;DHT22;71547;50.146;8.174;2024-03-22T02:01:56;6.20;99.90
1778;DHT22;71547;50.146;8.174;2024-03-22T02:04:22;6.20;99.90
1778;DHT22;71547;50.146;8.174;2024-03-22T02:06:49;6.30;99.90
1778;DHT22;71547;50.146;8.174;2024-03-22T02:09:15;6.20;99.90
1778;DHT22;71547;50.146;8.174;2024-03-22T02:11:42;6.20;99.90
1778;DHT22;71547;50.146;8.174;2024-03-22T02:14:08;6.20;99.90
1778;DHT22;71547;50.146;8.174;2024-03-22T02:16:36;6.10;99.90
1778;DHT22;71547;50.146;8.174;2024-03-22T02:19:02;6.10;99.90
1778;DHT22;71547;50.146;8.174;2024-03-22T02:21:28;6.10;99.90
1778;DHT22;71547;50.146;8.174;2024-03-22T02:23:55;6.10;99.90
1778;DHT22;71547;50.146;8.174;2024-03-22T02:26:21;6.10;99.90
1778;DHT22;71547;50.146;8.174;2024-03-22T02:28:48;6.00;99.90
1778;DHT22;71547;50.146;8.174;2024-03-22T02:31:14;6.00;99.90
1778;DHT22;71547;50.146;8.174;2024-03-22T02:33:41;6.00;99.90
1778;DHT22;71547;50.146;8.174;2024-03-22T02:36:07;6.00;99.90
1778;DHT22;71547;50.146;8.174;2024-03-22T02:38:33;6.00;99.90
1778;DHT22;71547;50.146;8.174;2024-03-22T02:41:00;5.90;99.90
1778;DHT22;71547;50.146;8.174;2024-03-22T02:43:26;6.00;99.90
1778;DHT22;71547;50.146;8.174;2024-03-22T02:45:53;5.90;99.90
1778;DHT22;71547;50.146;8.174;2024-03-22T02:48:19;5.90;99.90
1778;DHT22;71547;50.146;8.174;2024-03-22T02:50:45;6.00;99.90
1778;DHT22;71547;50.146;8.174;2024-03-22T02:53:11;5.90;99.90
1778;DHT22;71547;50.146;8.174;2024-03-22T02:55:37;5.90;99.90
1778;DHT22;71547;50.146;8.174;2024-03-22T02:58:06;6.00;99.90
1778;DHT22;71547;50.146;8.174;2024-03-22T03:00:35;6.00;99.90
1778;DHT22;71547;50.146;8.174;2024-03-22T03:03:02;6.00;99.90
1778;DHT22;71547;50.146;8.174;2024-03-22T03:05:28;6.00;99.90
1778;DHT22;71547;50.146;8.174;2024-03-22T03:07:54;6.00;99.90
1778;DHT22;71547;50.146;8.174;2024-03-22T03:10:21;5.90;99.90
1778;DHT22;71547;50.146;8.174;2024-03-22T03:12:47;6.00;99.90
1778;DHT22;71547;50.146;8.174;2024-03-22T03:15:15;5.90;99.90
1778;DHT22;71547;50.146;8.174;2024-03-22T03:17:41;5.90;99.90
1778;DHT22;71547;50.146;8.174;2024-03-22T03:20:08;5.90;99.90
1778;DHT22;71547;50.146;8.174;2024-03-22T03:22:36;5.90;99.90
1778;DHT22;71547;50.146;8.174;2024-03-22T03:25:03;5.90;99.90
1778;DHT22;71547;50.146;8.174;2024-03-22T03:27:30;5.90;99.90
1778;DHT22;71547;50.146;8.174;2024-03-22T03:29:56;5.90;99.90
1778;DHT22;71547;50.146;8.174;2024-03-22T03:32:23;5.90;99.90
1778;DHT22;71547;50.146;8.174;2024-03-22T03:34:50;5.90;99.90
1778;DHT22;71547;50.146;8.174;2024-03-22T03:37:16;5.90;99.90
1778;DHT22;71547;50.146;8.174;2024-03-22T03:39:43;5.90;99.90
1778;DHT22;71547;50.146;8.174;2024-03-22T03:42:09;5.90;99.90
1778;DHT22;71547;50.146;8.174;2024-03-22T03:44:36;5.90;99.90
1778;DHT22;71547;50.146;8.174;2024-03-22T03:47:02;6.00;99.90
1778;DHT22;71547;50.146;8.174;2024-03-22T03:49:30;5.90;99.90
1778;DHT22;71547;50.146;8.174;2024-03-22T03:51:56;6.00;99.90
1778;DHT22;71547;50.146;8.174;2024-03-22T03:54:22;5.90;99.90
1778;DHT22;71547;50.146;8.174;2024-03-22T03:56:48;6.00;99.90
1778;DHT22;71547;50.146;8.174;2024-03-22T03:59:14;6.00;99.90
1778;DHT22;71547;50.146;8.174;2024-03-22T04:01:40;6.10;99.90
1778;DHT22;71547;50.146;8.174;2024-03-22T04:04:06;6.00;99.90
1778;DHT22;71547;50.146;8.174;2024-03-22T04:06:35;6.10;99.90
1778;DHT22;71547;50.146;8.174;2024-03-22T04:09:01;6.10;99.90
1778;DHT22;71547;50.146;8.174;2024-03-22T04:11:28;6.10;99.90
1778;DHT22;71547;50.146;8.174;2024-03-22T04:13:54;6.10;99.90
1778;DHT22;71547;50.146;8.174;2024-03-22T04:16:20;6.10;99.90
1778;DHT22;71547;50.146;8.174;2024-03-22T04:18:47;6.20;99.90
1778;DHT22;71547;50.146;8.174;2024-03-22T04:21:13;6.10;99.90
1778;DHT22;71547;50.146;8.174;2024-03-22T04:23:40;6.20;99.90
1778;DHT22;71547;50.146;8.174;2024-03-22T04:26:06;6.20;99.90
1778;DHT22;71547;50.146;8.174;2024-03-22T04:28:32;6.20;99.90
1778;DHT22;71547;50.146;8.174;2024-03-22T04:30:59;6.20;99.90
1778;DHT22;71547;50.146;8.174;2024-03-22T04:33:26;6.30;99.90
1778;DHT22;71547;50.146;8.174;2024-03-22T04:35:53;6.30;99.90
1778;DHT22;71547;50.146;8.174;2024-03-22T04:38:19;6.30;99.90
1778;DHT22;71547;50.146;8.174;2024-03-22T04:40:47;6.30;99.90
1778;DHT22;71547;50.146;8.174;2024-03-22T04:43:14;6.30;99.90
1778;DHT22;71547;50.146;8.174;2024-03-22T04:45:42;6.30;99.90
1778;DHT22;71547;50.146;8.174;2024-03-22T04:48:08;6.30;99.90
1778;DHT22;71547;50.146;8.174;2024-03-22T04:50:35;6.30;99.90
1778;DHT22;71547;50.146;8.174;2024-03-22T04:53:01;6.40;99.90
1778;DHT22;71547;50.146;8.174;2024-03-22T04:55:28;6.40;99.90
1778;DHT22;71547;50.146;8.174;2024-03-22T04:57:55;6.40;99.90
1778;DHT22;71547;50.146;8.174;2024-03-22T05:00:21;6.40;99.90
1778;DHT22;71547;50.146;8.174;2024-03-22T05:02:47;6.40;99.90
1778;DHT22;71547;50.146;8.174;2024-03-22T05:05:14;6.40;99.90
1778;DHT22;71547;50.146;8.174;2024-03-22T05:07:40;6.40;99.90
1778;DHT22;71547;50.146;8.174;2024-03-22T05:10:06;6.40;99.90
1778;DHT22;71547;50.146;8.174;2024-03-22T05:12:34;6.50;99.90
1778;DHT22;71547;50.146;8.174;2024-03-22T05:15:02;6.40;99.90
1778;DHT22;71547;50.146;8.174;2024-03-22T05:17:28;6.50;99.90
1778;DHT22;71547;50.146;8.174;2024-03-22T05:19:55;6.50;99.90
1778;DHT22;71547;50.146;8.174;2024-03-22T05:22:21;6.50;99.90
1778;DHT22;71547;50.146;8.174;2024-03-22T05:24:47;6.60;99.90
1778;DHT22;71547;50.146;8.174;2024-03-22T05:27:13;6.60;99.90
1778;DHT22;71547;50.146;8.174;2024-03-22T05:29:40;6.60;99.90
1778;DHT22;71547;50.146;8.174;2024-03-22T05:32:07;6.60;99.90
1778;DHT22;71547;50.146;8.174;2024-03-22T05:34:33;6.60;99.90
1778;DHT22;71547;50.146;8.174;2024-03-22T05:37:01;6.60;99.90
1778;DHT22;71547;50.146;8.174;2024-03-22T05:39:27;6.60;99.90
1778;DHT22;71547;50.146;8.174;2024-03-22T05:41:53;6.60;99.90
1778;DHT22;71547;50.146;8.174;2024-03-22T05:44:21;6.60;99.90
1778;DHT22;71547;50.146;8.174;2024-03-22T05:46:48;6.70;99.90
1778;DHT22;71547;50.146;8.174;2024-03-22T05:49:15;6.70;99.90
1778;DHT22;71547;50.146;8.174;2024-03-22T05:51:41;6.70;99.90
1778;DHT22;71547;50.146;8.174;2024-03-22T05:54:08;6.80;99.90
1778;DHT22;71547;50.146;8.174;2024-03-22T05:56:34;6.80;99.90
1778;DHT22;71547;50.146;8.174;2024-03-22T05:59:00;6.80;99.90
1778;DHT22;71547;50.146;8.174;2024-03-22T06:01:27;6.90;99.90
1778;DHT22;71547;50.146;8.174;2024-03-22T06:03:53;6.90;99.90
1778;DHT22;71547;50.146;8.174;2024-03-22T06:06:21;6.90;99.90
1778;DHT22;71547;50.146;8.174;2024-03-22T06:08:53;7.00;99.90
1778;DHT22;71547;50.146;8.174;2024-03-22T06:11:20;7.00;99.90
1778;DHT22;71547;50.146;8.174;2024-03-22T06:13:49;7.00;99.90
1778;DHT22;71547;50.146;8.174;2024-03-22T06:16:16;7.00;99.90
1778;DHT22;71547;50.146;8.174;2024-03-22T06:18:42;7.10;99.90
1778;DHT22;71547;50.146;8.174;2024-03-22T06:21:08;7.10;99.90
1778;DHT22;71547;50.146;8.174;2024-03-22T06:23:36;7.10;99.90
1778;DHT22;71547;50.146;8.174;2024-03-22T06:26:02;7.20;99.90
1778;DHT22;71547;50.146;8.174;2024-03-22T06:28:29;7.30;99.90
1778;DHT22;71547;50.146;8.174;2024-03-22T06:30:55;7.30;99.90
1778;DHT22;71547;50.146;8.174;2024-03-22T06:33:21;7.40;99.90
1778;DHT22;71547;50.146;8.174;2024-03-22T06:35:47;7.40;99.90
1778;DHT22;71547;50.146;8.174;2024-03-22T06:38:14;7.40;99.90
1778;DHT22;71547;50.146;8.174;2024-03-22T06:40:41;7.50;99.90
1778;DHT22;71547;50.146;8.174;2024-03-22T06:43:07;7.50;99.90
1778;DHT22;71547;50.146;8.174;2024-03-22T06:45:34;7.60;99.90
1778;DHT22;71547;50.146;8.174;2024-03-22T06:48:00;7.70;99.90
1778;DHT22;71547;50.146;8.174;2024-03-22T06:50:27;7.70;99.90
1778;DHT22;71547;50.146;8.174;2024-03-22T06:52:53;7.80;99.90
1778;DHT22;71547;50.146;8.174;2024-03-22T06:55:19;7.90;99.90
1778;DHT22;71547;50.146;8.174;2024-03-22T06:57:49;8.00;99.90
1778;DHT22;71547;50.146;8.174;2024-03-22T07:00:16;8.10;99.90
1778;DHT22;71547;50.146;8.174;2024-03-22T07:02:44;8.20;99.90
1778;DHT22;71547;50.146;8.174;2024-03-22T07:05:11;8.30;99.90
1778;DHT22;71547;50.146;8.174;2024-03-22T07:07:37;8.40;99.90
1778;DHT22;71547;50.146;8.174;2024-03-22T07:10:05;8.50;99.90
1778;DHT22;71547;50.146;8.174;2024-03-22T07:12:31;8.60;99.90
1778;DHT22;71547;50.146;8.174;2024-03-22T07:14:59;8.70;99.90
1778;DHT22;71547;50.146;8.174;2024-03-22T07:17:26;8.70;99.90
1778;DHT22;71547;50.146;8.174;2024-03-22T07:19:52;8.80;99.90
1778;DHT22;71547;50.146;8.174;2024-03-22T07:22:18;8.90;99.90
1778;DHT22;71547;50.146;8.174;2024-03-22T07:24:44;9.00;99.90
1778;DHT22;71547;50.146;8.174;2024-03-22T07:27:11;9.10;99.90
1778;DHT22;71547;50.146;8.174;2024-03-22T07:29:38;9.20;99.90
1778;DHT22;71547;50.146;8.174;2024-03-22T07:32:05;9.20;99.90
1778;DHT22;71547;50.146;8.174;2024-03-22T07:34:31;9.30;99.90
1778;DHT22;71547;50.146;8.174;2024-03-22T07:36:58;9.40;99.90
1778;DHT22;71547;50.146;8.174;2024-03-22T07:39:24;9.50;99.90
1778;DHT22;71547;50.146;8.174;2024-03-22T07:41:50;9.60;99.90
1778;DHT22;71547;50.146;8.174;2024-03-22T07:44:16;9.70;99.90
1778;DHT22;71547;50.146;8.174;2024-03-22T07:46:43;9.80;99.90
1778;DHT22;71547;50.146;8.174;2024-03-22T07:49:11;9.90;99.90
1778;DHT22;71547;50.146;8.174;2024-03-22T07:51:38;10.10;99.90
1778;DHT22;71547;50.146;8.174;2024-03-22T07:54:04;10.10;99.90
1778;DHT22;71547;50.146;8.174;2024-03-22T07:56:30;10.20;99.90
1778;DHT22;71547;50.146;8.174;2024-03-22T07:58:56;10.30;99.90
1778;DHT22;71547;50.146;8.174;2024-03-22T08:01:22;10.40;99.90
1778;DHT22;71547;50.146;8.174;2024-03-22T08:03:49;10.50;99.90
1778;DHT22;71547;50.146;8.174;2024-03-22T08:06:16;10.60;99.90
1778;DHT22;71547;50.146;8.174;2024-03-22T08:08:43;10.70;99.90
1778;DHT22;71547;50.146;8.174;2024-03-22T08:11:10;10.80;99.90
1778;DHT22;71547;50.146;8.174;2024-03-22T08:13:36;10.80;99.90
1778;DHT22;71547;50.146;8.174;2024-03-22T08:16:03;10.90;99.90
1778;DHT22;71547;50.146;8.174;2024-03-22T08:18:31;11.00;99.90
1778;DHT22;71547;50.146;8.174;2024-03-22T08:20:58;11.10;99.90
1778;DHT22;71547;50.146;8.174;2024-03-22T08:23:27;11.20;99.90
1778;DHT22;71547;50.146;8.174;2024-03-22T08:25:53;11.30;99.90
1778;DHT22;71547;50.146;8.174;2024-03-22T08:28:20;11.40;99.90
1778;DHT22;71547;50.146;8.174;2024-03-22T08:30:46;11.50;99.90
1778;DHT22;71547;50.146;8.174;2024-03-22T08:33:12;11.50;99.90
1778;DHT22;71547;50.146;8.174;2024-03-22T08:35:39;11.60;99.90
1778;DHT22;71547;50.146;8.174;2024-03-22T08:38:05;11.70;99.90
1778;DHT22;71547;50.146;8.174;2024-03-22T08:40:37;11.80;99.90
1778;DHT22;71547;50.146;8.174;2024-03-22T08:43:04;11.90;99.90
1778;DHT22;71547;50.146;8.174;2024-03-22T08:45:31;12.00;99.90
1778;DHT22;71547;50.146;8.174;2024-03-22T08:47:58;12.10;99.90
1778;DHT22;71547;50.146;8.174;2024-03-22T08:50:25;12.20;99.90
1778;DHT22;71547;50.146;8.174;2024-03-22T08:52:51;12.30;99.90
1778;DHT22;71547;50.146;8.174;2024-03-22T08:55:17;12.40;99.90
1778;DHT22;71547;50.146;8.174;2024-03-22T08:57:46;12.50;99.90
1778;DHT22;71547;50.146;8.174;2024-03-22T09:00:12;12.50;99.90
1778;DHT22;71547;50.146;8.174;2024-03-22T09:02:39;12.60;99.90
1778;DHT22;71547;50.146;8.174;2024-03-22T09:05:06;12.70;99.90
1778;DHT22;71547;50.146;8.174;2024-03-22T09:07:34;12.70;99.90
1778;DHT22;71547;50.146;8.174;2024-03-22T09:10:00;12.80;99.90
1778;DHT22;71547;50.146;8.174;2024-03-22T09:12:26;12.80;99.90
1778;DHT22;71547;50.146;8.174;2024-03-22T09:14:54;12.80;99.90
1778;DHT22;71547;50.146;8.174;2024-03-22T09:17:20;12.90;99.90
1778;DHT22;71547;50.146;8.174;2024-03-22T09:19:46;13.00;99.90
1778;DHT22;71547;50.146;8.174;2024-03-22T09:22:12;13.00;99.90
1778;DHT22;71547;50.146;8.174;2024-03-22T09:24:38;13.00;99.90
1778;DHT22;71547;50.146;8.174;2024-03-22T09:27:04;13.00;99.90
1778;DHT22;71547;50.146;8.174;2024-03-22T09:29:34;13.10;99.90
1778;DHT22;71547;50.146;8.174;2024-03-22T09:32:02;13.20;99.90
1778;DHT22;71547;50.146;8.174;2024-03-22T09:34:28;13.30;99.90
1778;DHT22;71547;50.146;8.174;2024-03-22T09:36:55;13.30;99.90
1778;DHT22;71547;50.146;8.174;2024-03-22T09:39:22;13.40;99.90
1778;DHT22;71547;50.146;8.174;2024-03-22T09:41:50;13.50;99.90
1778;DHT22;71547;50.146;8.174;2024-03-22T09:44:19;13.50;99.90
1778;DHT22;71547;50.146;8.174;2024-03-22T09:46:46;13.70;99.90
1778;DHT22;71547;50.146;8.174;2024-03-22T09:49:14;13.80;99.90
1778;DHT22;71547;50.146;8.174;2024-03-22T09:51:41;13.80;99.90
1778;DHT22;71547;50.146;8.174;2024-03-22T09:54:09;13.80;99.90
1778;DHT22;71547;50.146;8.174;2024-03-22T09:56:38;13.90;99.90
1778;DHT22;71547;50.146;8.174;2024-03-22T09:59:05;13.90;99.90
1778;DHT22;71547;50.146;8.174;2024-03-22T10:01:33;14.00;99.90
1778;DHT22;71547;50.146;8.174;2024-03-22T10:04:00;14.20;99.90
1778;DHT22;71547;50.146;8.174;2024-03-22T10:06:29;14.30;99.90
1778;DHT22;71547;50.146;8.174;2024-03-22T10:08:58;14.40;99.90
1778;DHT22;71547;50.146;8.174;2024-03-22T10:11:26;14.40;99.90
1778;DHT22;71547;50.146;8.174;2024-03-22T10:13:52;14.40;99.90
1778;DHT22;71547;50.146;8.174;2024-03-22T10:16:20;14.40;99.90
1778;DHT22;71547;50.146;8.174;2024-03-22T10:18:47;14.40;99.90
1778;DHT22;71547;50.146;8.174;2024-03-22T10:21:17;14.40;99.90
1778;DHT22;71547;50.146;8.174;2024-03-22T10:23:48;14.30;99.90
1778;DHT22;71547;50.146;8.174;2024-03-22T10:26:16;14.30;99.90
1778;DHT22;71547;50.146;8.174;2024-03-22T10:28:46;14.30;99.90
1778;DHT22;71547;50.146;8.174;2024-03-22T10:31:13;14.40;99.90
1778;DHT22;71547;50.146;8.174;2024-03-22T10:33:40;14.60;99.90
1778;DHT22;71547;50.146;8.174;2024-03-22T10:36:07;14.70;99.90
1778;DHT22;71547;50.146;8.174;2024-03-22T10:38:36;14.80;99.90
1778;DHT22;71547;50.146;8.174;2024-03-22T10:41:05;15.00;99.90
1778;DHT22;71547;50.146;8.174;2024-03-22T10:43:32;15.10;99.90
1778;DHT22;71547;50.146;8.174;2024-03-22T10:46:01;15.20;99.90
1778;DHT22;71547;50.146;8.174;2024-03-22T10:48:30;15.20;99.90
1778;DHT22;71547;50.146;8.174;2024-03-22T10:50:59;15.20;99.90
1778;DHT22;71547;50.146;8.174;2024-03-22T10:53:28;15.20;99.90
1778;DHT22;71547;50.146;8.174;2024-03-22T10:55:58;15.10;99.90
1778;DHT22;71547;50.146;8.174;2024-03-22T10:58:27;15.10;99.90
1778;DHT22;71547;50.146;8.174;2024-03-22T11:00:53;15.00;99.90
1778;DHT22;71547;50.146;8.174;2024-03-22T11:03:20;14.90;99.90
1778;DHT22;71547;50.146;8.174;2024-03-22T11:05:47;15.00;99.90
1778;DHT22;71547;50.146;8.174;2024-03-22T11:08:23;15.00;99.90
1778;DHT22;71547;50.146;8.174;2024-03-22T11:10:49;15.10;99.90
1778;DHT22;71547;50.146;8.174;2024-03-22T11:13:17;15.10;99.90
1778;DHT22;71547;50.146;8.174;2024-03-22T11:15:47;15.20;99.90
1778;DHT22;71547;50.146;8.174;2024-03-22T11:18:13;15.20;99.90
1778;DHT22;71547;50.146;8.174;2024-03-22T11:20:39;15.20;99.90
1778;DHT22;71547;50.146;8.174;2024-03-22T11:23:06;15.10;99.90
1778;DHT22;71547;50.146;8.174;2024-03-22T11:25:32;15.10;99.90
1778;DHT22;71547;50.146;8.174;2024-03-22T11:27:59;15.20;99.90
1778;DHT22;71547;50.146;8.174;2024-03-22T11:30:28;15.20;99.90
1778;DHT22;71547;50.146;8.174;2024-03-22T11:32:56;15.30;99.90
1778;DHT22;71547;50.146;8.174;2024-03-22T11:35:22;15.40;99.90
1778;DHT22;71547;50.146;8.174;2024-03-22T11:37:50;15.30;99.90
1778;DHT22;71547;50.146;8.174;2024-03-22T11:40:16;15.30;99.90
1778;DHT22;71547;50.146;8.174;2024-03-22T11:42:46;15.30;99.90
1778;DHT22;71547;50.146;8.174;2024-03-22T11:45:15;15.40;99.90
1778;DHT22;71547;50.146;8.174;2024-03-22T11:47:42;15.50;99.90
1778;DHT22;71547;50.146;8.174;2024-03-22T11:50:10;15.50;99.90
1778;DHT22;71547;50.146;8.174;2024-03-22T11:52:40;15.40;99.90
1778;DHT22;71547;50.146;8.174;2024-03-22T11:55:07;15.50;99.90
1778;DHT22;71547;50.146;8.174;2024-03-22T11:57:33;15.40;99.90
1778;DHT22;71547;50.146;8.174;2024-03-22T12:00:00;15.40;99.90
1778;DHT22;71547;50.146;8.174;2024-03-22T12:02:27;15.40;99.90
1778;DHT22;71547;50.146;8.174;2024-03-22T12:04:54;15.30;99.90
1778;DHT22;71547;50.146;8.174;2024-03-22T12:07:21;15.30;99.90
1778;DHT22;71547;50.146;8.174;2024-03-22T12:09:47;15.40;99.90
1778;DHT22;71547;50.146;8.174;2024-03-22T12:12:14;15.20;99.90
1778;DHT22;71547;50.146;8.174;2024-03-22T12:14:41;15.30;99.90
1778;DHT22;71547;50.146;8.174;2024-03-22T12:17:07;15.40;99.90
1778;DHT22;71547;50.146;8.174;2024-03-22T12:19:34;15.50;99.90
1778;DHT22;71547;50.146;8.174;2024-03-22T12:22:01;15.50;99.90
1778;DHT22;71547;50.146;8.174;2024-03-22T12:24:29;15.60;99.90
1778;DHT22;71547;50.146;8.174;2024-03-22T12:26:55;15.60;99.90
1778;DHT22;71547;50.146;8.174;2024-03-22T12:29:21;15.50;99.90
1778;DHT22;71547;50.146;8.174;2024-03-22T12:31:47;15.50;99.90
1778;DHT22;71547;50.146;8.174;2024-03-22T12:34:14;15.60;99.90
1778;DHT22;71547;50.146;8.174;2024-03-22T12:36:40;15.60;99.90
1778;DHT22;71547;50.146;8.174;2024-03-22T12:39:06;15.50;99.90
1778;DHT22;71547;50.146;8.174;2024-03-22T12:41:34;15.40;99.90
1778;DHT22;71547;50.146;8.174;2024-03-22T12:44:00;15.30;99.90
1778;DHT22;71547;50.146;8.174;2024-03-22T12:46:27;15.30;99.90
1778;DHT22;71547;50.146;8.174;2024-03-22T12:48:53;15.10;99.90
1778;DHT22;71547;50.146;8.174;2024-03-22T12:51:20;15.00;99.90
1778;DHT22;71547;50.146;8.174;2024-03-22T12:53:46;15.00;99.90
1778;DHT22;71547;50.146;8.174;2024-03-22T12:56:12;14.90;99.90
1778;DHT22;71547;50.146;8.174;2024-03-22T12:58:40;14.90;99.90
1778;DHT22;71547;50.146;8.174;2024-03-22T13:01:06;14.90;99.90
1778;DHT22;71547;50.146;8.174;2024-03-22T13:03:34;15.00;99.90
1778;DHT22;71547;50.146;8.174;2024-03-22T13:06:00;14.90;99.90
1778;DHT22;71547;50.146;8.174;2024-03-22T13:08:26;14.80;99.90
1778;DHT22;71547;50.146;8.174;2024-03-22T13:10:53;14.80;99.90
1778;DHT22;71547;50.146;8.174;2024-03-22T13:13:20;14.70;99.90
1778;DHT22;71547;50.146;8.174;2024-03-22T13:15:47;14.70;99.90
1778;DHT22;71547;50.146;8.174;2024-03-22T13:18:13;14.80;99.90
1778;DHT22;71547;50.146;8.174;2024-03-22T13:20:39;14.70;99.90
1778;DHT22;71547;50.146;8.174;2024-03-22T13:23:06;14.70;99.90
1778;DHT22;71547;50.146;8.174;2024-03-22T13:25:35;14.70;99.90
1778;DHT22;71547;50.146;8.174;2024-03-22T13:28:02;14.70;99.90
1778;DHT22;71547;50.146;8.174;2024-03-22T13:30:31;14.70;99.90
1778;DHT22;71547;50.146;8.174;2024-03-22T13:32:58;14.60;99.90
1778;DHT22;71547;50.146;8.174;2024-03-22T13:35:25;14.60;99.90
1778;DHT22;71547;50.146;8.174;2024-03-22T13:37:51;14.60;99.90
1778;DHT22;71547;50.146;8.174;2024-03-22T13:40:17;14.60;99.90
1778;DHT22;71547;50.146;8.174;2024-03-22T13:42:43;14.70;99.90
1778;DHT22;71547;50.146;8.174;2024-03-22T13:45:10;14.60;99.90
1778;DHT22;71547;50.146;8.174;2024-03-22T13:47:36;14.60;99.90
1778;DHT22;71547;50.146;8.174;2024-03-22T13:50:06;14.60;99.90
1778;DHT22;71547;50.146;8.174;2024-03-22T13:52:32;14.70;99.90
1778;DHT22;71547;50.146;8.174;2024-03-22T13:54:58;14.60;99.90
1778;DHT22;71547;50.146;8.174;2024-03-22T13:57:26;14.70;99.90
1778;DHT22;71547;50.146;8.174;2024-03-22T13:59:53;14.70;99.90
1778;DHT22;71547;50.146;8.174;2024-03-22T14:02:19;14.70;99.90
1778;DHT22;71547;50.146;8.174;2024-03-22T14:04:45;14.70;99.90
1778;DHT22;71547;50.146;8.174;2024-03-22T14:07:13;14.80;99.90
1778;DHT22;71547;50.146;8.174;2024-03-22T14:09:39;14.80;99.90
1778;DHT22;71547;50.146;8.174;2024-03-22T14:12:06;14.70;99.90
1778;DHT22;71547;50.146;8.174;2024-03-22T14:14:32;14.70;99.90
1778;DHT22;71547;50.146;8.174;2024-03-22T14:16:59;14.80;99.90
1778;DHT22;71547;50.146;8.174;2024-03-22T14:19:25;14.80;99.90
1778;DHT22;71547;50.146;8.174;2024-03-22T14:21:51;14.80;99.90
1778;DHT22;71547;50.146;8.174;2024-03-22T14:24:19;15.00;99.90
1778;DHT22;71547;50.146;8.174;2024-03-22T14:26:45;15.00;99.90
1778;DHT22;71547;50.146;8.174;2024-03-22T14:29:12;15.00;99.90
1778;DHT22;71547;50.146;8.174;2024-03-22T14:31:39;15.00;99.90
1778;DHT22;71547;50.146;8.174;2024-03-22T14:34:06;15.00;99.90
1778;DHT22;71547;50.146;8.174;2024-03-22T14:36:32;15.00;99.90
1778;DHT22;71547;50.146;8.174;2024-03-22T14:38:59;15.10;99.90
1778;DHT22;71547;50.146;8.174;2024-03-22T14:41:26;15.10;99.90
1778;DHT22;71547;50.146;8.174;2024-03-22T14:43:52;15.10;99.90
1778;DHT22;71547;50.146;8.174;2024-03-22T14:46:20;15.20;99.90
1778;DHT22;71547;50.146;8.174;2024-03-22T14:48:50;15.20;99.90
1778;DHT22;71547;50.146;8.174;2024-03-22T14:51:16;15.40;99.90
1778;DHT22;71547;50.146;8.174;2024-03-22T14:53:42;15.40;99.90
1778;DHT22;71547;50.146;8.174;2024-03-22T14:56:09;15.40;99.90
1778;DHT22;71547;50.146;8.174;2024-03-22T14:58:39;15.40;99.90
1778;DHT22;71547;50.146;8.174;2024-03-22T15:01:05;15.50;99.90
1778;DHT22;71547;50.146;8.174;2024-03-22T15:03:32;15.50;99.90
1778;DHT22;71547;50.146;8.174;2024-03-22T15:05:59;15.50;99.90
1778;DHT22;71547;50.146;8.174;2024-03-22T15:08:26;15.60;99.90
1778;DHT22;71547;50.146;8.174;2024-03-22T15:10:54;15.70;99.90
1778;DHT22;71547;50.146;8.174;2024-03-22T15:15:53;16.70;99.90
1778;DHT22;71547;50.146;8.174;2024-03-22T15:18:20;17.10;99.80
1778;DHT22;71547;50.146;8.174;2024-03-22T15:20:46;17.30;99.40
1778;DHT22;71547;50.146;8.174;2024-03-22T15:23:13;17.20;99.40
1778;DHT22;71547;50.146;8.174;2024-03-22T15:25:40;17.10;99.60
1778;DHT22;71547;50.146;8.174;2024-03-22T15:28:06;16.90;99.40
1778;DHT22;71547;50.146;8.174;2024-03-22T15:30:32;16.80;99.10
1778;DHT22;71547;50.146;8.174;2024-03-22T15:33:01;16.80;98.90
1778;DHT22;71547;50.146;8.174;2024-03-22T15:35:29;16.70;99.00
1778;DHT22;71547;50.146;8.174;2024-03-22T15:37:55;16.90;99.30
1778;DHT22;71547;50.146;8.174;2024-03-22T15:40:22;17.40;98.70
1778;DHT22;71547;50.146;8.174;2024-03-22T15:42:48;17.70;98.60
1778;DHT22;71547;50.146;8.174;2024-03-22T15:45:14;17.90;97.80
1778;DHT22;71547;50.146;8.174;2024-03-22T15:47:40;17.80;97.40
1778;DHT22;71547;50.146;8.174;2024-03-22T15:50:08;18.00;97.60
1778;DHT22;71547;50.146;8.174;2024-03-22T15:52:35;18.40;97.00
1778;DHT22;71547;50.146;8.174;2024-03-22T15:55:01;18.60;96.50